Visit the IPS Meteostar Home Page IPSM Bethel / Bethel Airport FORECAST

Bethel, Alaska

3 miles away at Bethel / Bethel Airport 16:53 GMT

Weather:

Clear

Wind:

N 14 mph

Temperature:

36 ° F

Pressure:

29.66

Dew Point:

35 ° F

Relative Humidity:

96

Feels Like:

27 ° F

Visibility:

10 miles


Aviation Observations:

PABE 221653Z 35012KT 10SM CLR 02/02 A2964 RMK AO2 SLP037 T00220017 =

National Weather Service Forecast:
Kuskokwim Delta

kuskokwim delta- including the cities of bethel, hooper bay, and nunivak island
207 AM AKDT TUE SEP 22 2020

TODAY

Partly cloudy. Highs in the mid to upper 40s. North wind 10 to 20 mph.

TONIGHT

Partly cloudy. Lows in the upper 30s to mid 40s. North wind 10 to 25 mph.

WEDNESDAY

Partly sunny. Highs in the 40s. North wind 10 to 20 mph.

WEDNESDAY NIGHT

Partly cloudy. Lows in the lower 30s to lower 40s. North wind 10 to 20 mph.

THURSDAY

Mostly sunny. Highs in the lower to mid 40s. North wind 10 to 20 mph.

THURSDAY NIGHT

Mostly clear. Lows in the mid 30s.

FRIDAY

Partly sunny. Highs 40 to 45.

FRIDAY NIGHT AND SATURDAY

Mostly cloudy with a chance of rain and snow. Lows in the mid 30s. Highs in the mid 40s.

SATURDAY NIGHT THROUGH MONDAY

Mostly cloudy with a chance of rain. Lows in the mid 30s. Highs 45 to 50.
temperature / precipitation

bethel 49 39 46 / 0 10 0



Visit the IPS Meteostar Home Page